Time;durP1;ratioP1;P1;durP2;ratioP2;P2;SDS_P1;SDS_P2;PMS_P1;PMS_P2;Temp;Humidity;BMP_temperature;BMP_pressure;BME280_temperature;BME280_humidity;BME280_pressure;Samples;Min_cycle;Max_cycle;Signal;HPM_P1;HPM_P2
2023/02/13 00:00:37;;;;;;;14.90;7.65;;;5.60;84.80;;;;;;5017792;28;20042;-79
2023/02/13 00:03:03;;;;;;;14.07;8.07;;;5.50;85.00;;;;;;5016895;28;20018;-78
2023/02/13 00:05:29;;;;;;;11.80;6.88;;;5.50;85.00;;;;;;5013183;28;20042;-79
2023/02/13 00:07:54;;;;;;;12.85;7.00;;;5.40;85.50;;;;;;5026469;28;20029;-79
2023/02/13 00:10:20;;;;;;;13.10;7.75;;;5.40;85.10;;;;;;5015617;28;20052;-79
2023/02/13 00:12:46;;;;;;;15.48;8.25;;;5.50;85.20;;;;;;5026550;28;20527;-79
2023/02/13 00:15:11;;;;;;;15.90;7.93;;;5.40;85.20;;;;;;5024814;28;20040;-78
2023/02/13 00:17:37;;;;;;;14.73;7.25;;;5.50;85.20;;;;;;5031267;28;20387;-79
2023/02/13 00:20:04;;;;;;;14.60;7.47;;;5.50;85.40;;;;;;5032215;28;20487;-79
2023/02/13 00:22:29;;;;;;;11.07;6.22;;;5.40;85.40;;;;;;5029780;28;20040;-79
2023/02/13 00:24:55;;;;;;;15.05;7.30;;;5.40;85.80;;;;;;5026026;28;20029;-78
2023/02/13 00:27:21;;;;;;;14.77;7.68;;;5.40;85.60;;;;;;5031367;28;20108;-80
2023/02/13 00:29:46;;;;;;;11.43;6.15;;;5.30;85.80;;;;;;5020058;28;21320;-80
2023/02/13 00:32:13;;;;;;;13.25;7.57;;;5.40;85.50;;;;;;5028889;28;20030;-80
2023/02/13 00:34:39;;;;;;;12.70;7.07;;;5.40;85.70;;;;;;5025976;28;20063;-80
2023/02/13 00:37:04;;;;;;;13.50;7.40;;;5.30;85.80;;;;;;5033174;28;20081;-79
2023/02/13 00:39:30;;;;;;;12.90;6.70;;;5.30;86.20;;;;;;5029745;28;20455;-79
2023/02/13 00:41:55;;;;;;;17.27;5.85;;;5.30;86.20;;;;;;5034163;28;20029;-79
2023/02/13 00:44:21;;;;;;;12.75;6.85;;;5.30;85.90;;;;;;5031289;28;20026;-80
2023/02/13 00:46:47;;;;;;;11.40;6.70;;;5.20;86.20;;;;;;5030565;28;20041;-79
2023/02/13 00:49:12;;;;;;;11.70;7.60;;;5.20;86.30;;;;;;5032068;28;20036;-79
2023/02/13 00:51:38;;;;;;;12.45;6.60;;;5.40;85.80;;;;;;5025115;28;20029;-80
2023/02/13 00:54:04;;;;;;;15.63;7.40;;;5.30;86.10;;;;;;5023883;28;20025;-79
2023/02/13 00:56:29;;;;;;;12.13;6.57;;;5.30;86.30;;;;;;5032257;28;20029;-79
2023/02/13 00:58:55;;;;;;;11.40;7.05;;;5.30;86.20;;;;;;5031549;28;20120;-80
2023/02/13 01:01:20;;;;;;;12.13;6.38;;;5.30;86.30;;;;;;5025942;28;20104;-79
2023/02/13 01:03:46;;;;;;;11.80;5.95;;;5.10;86.60;;;;;;5025897;28;20071;-80
2023/02/13 01:06:12;;;;;;;13.95;6.97;;;5.10;86.70;;;;;;5027299;28;20034;-79
2023/02/13 01:08:39;;;;;;;16.23;8.15;;;5.40;85.90;;;;;;5023786;28;20028;-79
2023/02/13 01:11:05;;;;;;;11.40;6.35;;;5.20;86.40;;;;;;5027741;28;20029;-79
2023/02/13 01:13:31;;;;;;;14.20;7.05;;;5.00;87.10;;;;;;5024719;28;20036;-79
2023/02/13 01:15:57;;;;;;;12.05;6.72;;;5.00;87.00;;;;;;5025838;28;20055;-80
2023/02/13 01:18:23;;;;;;;12.07;6.85;;;5.00;87.20;;;;;;5026397;28;20022;-80
2023/02/13 01:21:01;;;;;;;11.57;6.35;;;5.00;87.30;;;;;;5030666;28;20068;-79
2023/02/13 01:23:30;;;;;;;12.57;6.50;;;5.10;86.70;;;;;;5031994;28;20033;-80
2023/02/13 01:25:56;;;;;;;12.48;5.85;;;5.00;86.90;;;;;;5026792;28;20029;-80
2023/02/13 01:28:21;;;;;;;12.50;6.20;;;5.00;87.00;;;;;;5029011;28;20032;-79
2023/02/13 01:30:55;;;;;;;13.80;7.43;;;5.00;87.10;;;;;;5028132;28;20527;-79
2023/02/13 01:33:22;;;;;;;12.20;6.85;;;5.10;86.90;;;;;;5032467;28;20072;-79
2023/02/13 01:35:48;;;;;;;12.13;6.47;;;5.00;87.30;;;;;;5033330;28;20025;-80
2023/02/13 01:38:14;;;;;;;9.25;6.10;;;5.10;86.90;;;;;;5029250;28;20053;-79
2023/02/13 01:40:47;;;;;;;12.63;6.15;;;4.90;87.30;;;;;;5026110;28;20055;-79
2023/02/13 01:43:13;;;;;;;14.23;8.00;;;4.90;87.20;;;;;;5025407;28;20495;-78
2023/02/13 01:45:40;;;;;;;10.73;6.25;;;4.80;87.50;;;;;;5027208;28;20033;-80
2023/02/13 01:48:22;;;;;;;10.75;6.05;;;4.90;87.70;;;;;;5032272;28;20037;-79
2023/02/13 01:50:52;;;;;;;13.73;6.82;;;5.00;87.40;;;;;;5029345;28;20099;-79
2023/02/13 01:53:32;;;;;;;11.07;6.78;;;4.80;87.50;;;;;;5034481;28;20029;-79
2023/02/13 01:56:28;;;;;;;10.55;6.03;;;4.80;88.00;;;;;;5031188;28;20067;-79
2023/02/13 01:58:59;;;;;;;10.52;5.25;;;4.70;87.90;;;;;;5017624;28;20041;-78
2023/02/13 02:01:26;;;;;;;12.95;7.35;;;4.70;87.80;;;;;;5029355;28;20064;-79
2023/02/13 02:03:56;;;;;;;18.13;9.05;;;4.70;88.30;;;;;;5031033;28;20478;-79
2023/02/13 02:06:28;;;;;;;18.23;10.18;;;4.80;88.10;;;;;;5032148;28;20462;-79
2023/02/13 02:08:59;;;;;;;17.60;9.40;;;4.70;88.20;;;;;;5028179;28;20484;-79
2023/02/13 02:11:52;;;;;;;12.20;7.28;;;4.70;88.10;;;;;;5026309;28;20378;-79
2023/02/13 02:14:19;;;;;;;10.48;6.03;;;4.70;87.70;;;;;;5017449;28;20395;-78
2023/02/13 02:16:45;;;;;;;12.80;6.22;;;4.50;88.10;;;;;;5025632;28;20112;-79
2023/02/13 02:19:26;;;;;;;9.35;5.60;;;4.50;88.50;;;;;;5016866;28;20583;-79
2023/02/13 02:22:32;;;;;;;15.48;7.72;;;4.50;88.30;;;;;;5025006;28;20030;-79
2023/02/13 02:25:41;;;;;;;11.85;6.70;;;4.70;88.20;;;;;;5021948;28;20029;-79
2023/02/13 02:28:16;;;;;;;16.75;8.15;;;4.60;88.30;;;;;;5023839;28;20573;-79
2023/02/13 02:31:03;;;;;;;16.25;9.45;;;4.50;88.30;;;;;;5022913;28;20526;-79
2023/02/13 02:33:32;;;;;;;11.60;6.65;;;4.50;88.60;;;;;;5031478;28;20033;-80
2023/02/13 02:36:31;;;;;;;15.10;8.70;;;4.60;88.30;;;;;;5025938;28;20112;-80
2023/02/13 02:38:59;;;;;;;13.32;6.70;;;4.60;88.30;;;;;;5030030;28;20403;-79
2023/02/13 02:41:41;;;;;;;15.35;7.13;;;4.50;88.70;;;;;;5039716;28;20041;-78
2023/02/13 02:44:34;;;;;;;11.13;5.65;;;4.40;89.00;;;;;;5036952;28;20033;-78
2023/02/13 02:49:58;;;;;;;14.38;8.10;;;4.20;89.20;;;;;;5040114;28;20068;-78
2023/02/13 02:52:55;;;;;;;13.57;7.15;;;4.20;89.40;;;;;;5041910;28;20430;-78
2023/02/13 02:55:36;;;;;;;14.80;7.60;;;4.20;89.30;;;;;;5037463;28;20030;-78
2023/02/13 03:06:59;;;;;;;13.80;7.28;;;4.30;89.10;;;;;;5043410;28;20059;-79
2023/02/13 03:15:08;;;;;;;18.48;10.20;;;4.50;89.10;;;;;;5030508;28;20504;-78
2023/02/13 03:24:02;;;;;;;16.60;8.93;;;4.40;89.10;;;;;;5031308;28;20057;-78
2023/02/13 03:26:48;;;;;;;18.17;9.30;;;4.50;88.90;;;;;;5035510;28;20029;-79
2023/02/13 03:32:07;;;;;;;20.55;11.43;;;4.20;90.00;;;;;;5030633;28;20044;-79
2023/02/13 03:40:35;;;;;;;16.40;8.05;;;4.00;90.10;;;;;;5033883;28;20103;-79
2023/02/13 03:43:11;;;;;;;13.75;7.82;;;3.80;90.40;;;;;;5030006;28;20053;-79
2023/02/13 03:45:53;;;;;;;18.10;8.13;;;3.70;90.50;;;;;;5034188;28;20029;-79
2023/02/13 03:51:11;;;;;;;12.55;7.50;;;3.80;90.40;;;;;;5030361;28;20558;-79
2023/02/13 03:53:40;;;;;;;15.27;7.60;;;4.00;90.20;;;;;;5022923;28;20038;-78
2023/02/13 04:01:53;;;;;;;13.52;8.25;;;4.10;89.90;;;;;;5035243;28;20548;-78
2023/02/13 04:04:32;;;;;;;14.55;8.15;;;4.10;90.20;;;;;;5033445;28;20029;-77
2023/02/13 04:07:06;;;;;;;14.30;8.98;;;4.00;90.30;;;;;;5030183;28;20349;-78
2023/02/13 04:09:36;;;;;;;15.48;8.52;;;4.00;90.30;;;;;;5025852;28;20049;-77
2023/02/13 04:12:18;;;;;;;13.18;7.68;;;3.90;90.30;;;;;;5022426;28;20030;-77
2023/02/13 04:15:07;;;;;;;15.98;7.78;;;3.90;90.40;;;;;;5023266;28;20057;-77
2023/02/13 04:17:38;;;;;;;15.60;8.55;;;3.80;90.60;;;;;;5025734;28;20225;-77
2023/02/13 04:20:05;;;;;;;13.18;7.70;;;3.70;90.70;;;;;;5019631;28;20303;-77
2023/02/13 04:22:31;;;;;;;15.15;8.68;;;3.70;90.70;;;;;;5022088;28;20030;-76
2023/02/13 04:24:57;;;;;;;17.92;8.30;;;3.50;90.90;;;;;;5030187;28;20025;-78
2023/02/13 04:27:26;;;;;;;14.77;7.45;;;3.40;91.10;;;;;;5025322;28;20528;-77
2023/02/13 04:29:52;;;;;;;14.57;7.53;;;3.40;91.10;;;;;;5026412;28;20029;-76
2023/02/13 04:32:17;;;;;;;14.85;7.80;;;3.40;91.10;;;;;;5026002;28;20032;-77
2023/02/13 04:34:43;;;;;;;13.68;7.93;;;3.60;91.00;;;;;;5027628;28;20048;-77
2023/02/13 04:37:09;;;;;;;14.63;8.15;;;3.60;90.90;;;;;;5022487;28;20049;-77
2023/02/13 04:39:34;;;;;;;15.70;8.68;;;3.60;91.00;;;;;;5025340;28;20560;-77
2023/02/13 04:42:00;;;;;;;15.95;8.60;;;3.60;91.10;;;;;;5029145;28;20086;-76
2023/02/13 04:44:25;;;;;;;13.70;7.63;;;3.70;90.90;;;;;;5019253;28;20034;-77
2023/02/13 04:46:51;;;;;;;13.05;7.90;;;3.50;91.00;;;;;;5023201;28;20037;-77
2023/02/13 04:49:17;;;;;;;15.02;7.32;;;3.60;91.10;;;;;;5023695;28;20025;-78
2023/02/13 04:51:42;;;;;;;17.08;8.75;;;3.50;91.10;;;;;;5026675;28;20029;-77
2023/02/13 04:54:09;;;;;;;15.82;8.25;;;3.60;91.10;;;;;;5026780;28;20477;-78
2023/02/13 04:56:35;;;;;;;12.18;7.72;;;3.50;91.20;;;;;;5017227;28;20045;-78
2023/02/13 04:59:01;;;;;;;12.95;7.97;;;3.40;91.20;;;;;;5019609;28;20026;-77
2023/02/13 05:01:26;;;;;;;16.65;7.78;;;3.20;91.50;;;;;;5019483;28;20802;-77
2023/02/13 05:03:52;;;;;;;15.32;8.35;;;2.80;92.20;;;;;;5015962;28;20131;-77
2023/02/13 05:06:17;;;;;;;15.32;8.05;;;2.80;92.50;;;;;;5016090;28;20368;-77
2023/02/13 05:08:43;;;;;;;14.98;8.30;;;2.90;92.30;;;;;;5023450;28;20084;-77
2023/02/13 05:11:09;;;;;;;18.38;9.52;;;2.90;92.30;;;;;;5025618;28;20048;-76
2023/02/13 05:13:34;;;;;;;14.65;7.15;;;2.90;92.40;;;;;;5013924;28;20037;-77
2023/02/13 05:16:00;;;;;;;15.68;9.52;;;3.10;92.30;;;;;;5012355;28;20037;-77
2023/02/13 05:18:26;;;;;;;12.70;7.45;;;3.20;92.00;;;;;;5015386;28;20079;-76
2023/02/13 05:23:36;;;;;;;15.20;8.63;;;3.10;92.10;;;;;;5019774;28;20144;-78
2023/02/13 05:26:02;;;;;;;14.80;8.60;;;3.10;92.20;;;;;;5024269;28;20088;-77
2023/02/13 05:29:28;;;;;;;16.10;8.52;;;3.20;92.10;;;;;;5017424;28;20058;-77
2023/02/13 05:31:23;;;;;;;15.75;7.90;;;3.30;92.00;;;;;;5031039;28;20546;-77
2023/02/13 05:33:48;;;;;;;19.02;9.02;;;3.20;92.10;;;;;;5017634;28;20030;-77
2023/02/13 05:36:14;;;;;;;16.48;9.05;;;3.20;92.10;;;;;;5015841;28;20627;-78
2023/02/13 05:38:40;;;;;;;18.90;8.82;;;3.20;92.20;;;;;;5024333;28;20132;-77
2023/02/13 05:41:05;;;;;;;17.88;9.23;;;3.20;92.30;;;;;;5023242;28;20061;-78
2023/02/13 05:43:31;;;;;;;17.58;8.32;;;3.30;92.30;;;;;;5023942;28;20087;-78
2023/02/13 05:46:02;;;;;;;14.25;7.97;;;3.20;92.20;;;;;;5025637;28;20026;-77
2023/02/13 05:48:27;;;;;;;16.85;8.52;;;3.00;92.60;;;;;;5025037;28;20029;-78
2023/02/13 05:50:53;;;;;;;15.63;8.60;;;3.00;92.60;;;;;;5018938;28;20033;-77
2023/02/13 05:53:19;;;;;;;14.82;8.00;;;3.10;92.50;;;;;;5014719;28;20031;-78
2023/02/13 05:55:45;;;;;;;16.58;9.55;;;3.10;92.60;;;;;;5020954;28;20029;-77
2023/02/13 05:58:11;;;;;;;13.80;6.95;;;3.10;92.50;;;;;;5028851;28;20033;-78
2023/02/13 06:00:36;;;;;;;15.00;8.73;;;3.10;92.80;;;;;;5024867;28;20037;-76
2023/02/13 06:03:02;;;;;;;13.18;7.50;;;3.00;92.70;;;;;;5018399;28;20034;-76
2023/02/13 06:05:28;;;;;;;16.40;8.35;;;3.00;92.90;;;;;;5019126;28;20038;-77
2023/02/13 06:07:53;;;;;;;16.67;8.35;;;3.00;92.80;;;;;;5023686;28;20029;-78
2023/02/13 06:10:19;;;;;;;18.58;9.77;;;2.90;93.00;;;;;;5024860;28;20025;-78
2023/02/13 06:12:44;;;;;;;17.08;9.63;;;2.90;93.30;;;;;;5023449;28;20104;-77
2023/02/13 06:15:10;;;;;;;18.15;9.15;;;3.10;93.00;;;;;;5011650;28;20065;-78
2023/02/13 06:17:36;;;;;;;18.17;9.07;;;3.10;92.90;;;;;;5016088;28;20029;-78
2023/02/13 06:20:01;;;;;;;18.70;9.45;;;3.30;92.80;;;;;;5014591;28;20040;-78
2023/02/13 06:22:27;;;;;;;25.38;11.10;;;3.30;92.80;;;;;;5015448;28;20030;-77
2023/02/13 06:24:53;;;;;;;20.05;9.95;;;3.10;93.10;;;;;;5020223;28;20048;-78
2023/02/13 06:27:18;;;;;;;18.45;10.13;;;3.10;93.20;;;;;;5028219;28;20026;-77
2023/02/13 06:29:44;;;;;;;20.55;10.98;;;3.10;93.10;;;;;;5021931;28;20029;-79
2023/02/13 06:32:09;;;;;;;21.08;10.13;;;3.00;93.00;;;;;;5019233;28;20064;-78
2023/02/13 06:34:35;;;;;;;20.98;11.30;;;3.00;93.20;;;;;;5010952;28;20048;-77
2023/02/13 06:37:01;;;;;;;19.95;11.32;;;3.50;94.10;;;;;;5018835;28;20634;-78
2023/02/13 06:39:26;;;;;;;20.00;10.07;;;3.10;93.10;;;;;;5011265;28;20046;-78
2023/02/13 06:41:53;;;;;;;17.80;9.75;;;3.10;93.30;;;;;;5015103;28;20484;-77
2023/02/13 06:44:19;;;;;;;17.42;10.07;;;3.10;93.40;;;;;;5013546;28;20079;-77
2023/02/13 06:46:44;;;;;;;18.00;10.32;;;3.00;93.40;;;;;;5019093;28;20770;-77
2023/02/13 06:49:10;;;;;;;18.38;10.35;;;3.10;93.40;;;;;;5015856;28;20033;-78
2023/02/13 06:51:36;;;;;;;26.95;10.75;;;3.10;93.40;;;;;;5016104;28;20034;-78
2023/02/13 06:54:01;;;;;;;18.30;9.68;;;3.20;93.20;;;;;;5021156;28;20036;-78
2023/02/13 06:56:27;;;;;;;17.92;10.25;;;3.10;93.30;;;;;;5004863;28;20026;-78
2023/02/13 06:58:52;;;;;;;19.30;9.48;;;3.20;93.50;;;;;;5011047;28;20033;-78
2023/02/13 07:01:18;;;;;;;18.88;10.60;;;3.30;93.50;;;;;;5018143;28;20385;-78
2023/02/13 07:03:44;;;;;;;16.65;9.60;;;3.40;93.40;;;;;;5019006;28;20038;-77
2023/02/13 07:06:15;;;;;;;21.02;11.27;;;3.30;93.40;;;;;;5014339;28;20080;-77
2023/02/13 07:08:41;;;;;;;21.63;11.00;;;3.30;93.60;;;;;;5017494;28;20092;-77
2023/02/13 07:11:06;;;;;;;25.35;11.13;;;3.20;93.70;;;;;;5020877;28;20026;-78
2023/02/13 07:13:32;;;;;;;21.30;9.90;;;3.10;93.70;;;;;;5014714;28;20064;-79
2023/02/13 07:16:00;;;;;;;16.88;9.95;;;3.10;93.70;;;;;;5017613;28;20639;-77
2023/02/13 07:18:26;;;;;;;20.55;9.65;;;3.20;93.70;;;;;;5024820;28;20060;-78
2023/02/13 07:20:51;;;;;;;18.17;9.43;;;3.10;93.80;;;;;;5018231;28;20136;-77
2023/02/13 07:23:17;;;;;;;18.23;10.05;;;3.10;93.90;;;;;;5003985;28;20038;-78
2023/02/13 07:25:42;;;;;;;20.10;9.95;;;3.10;94.00;;;;;;5016434;28;20030;-78
2023/02/13 07:28:08;;;;;;;19.63;10.77;;;3.20;93.90;;;;;;5026132;28;20511;-78
2023/02/13 07:30:34;;;;;;;20.98;10.40;;;3.20;94.00;;;;;;5027747;28;20025;-77
2023/02/13 07:33:01;;;;;;;16.60;9.10;;;3.20;93.90;;;;;;5033459;28;20036;-77
2023/02/13 07:35:27;;;;;;;22.50;9.20;;;3.30;94.00;;;;;;5030450;28;20033;-75
2023/02/13 07:37:54;;;;;;;17.63;9.57;;;3.40;93.90;;;;;;5026582;28;20128;-76
2023/02/13 07:40:19;;;;;;;17.45;10.30;;;3.30;94.20;;;;;;5022510;28;21150;-78
2023/02/13 07:42:45;;;;;;;21.73;11.45;;;3.30;94.20;;;;;;5024135;28;20029;-79
2023/02/13 07:45:11;;;;;;;31.15;11.80;;;3.20;94.20;;;;;;5024759;28;20079;-78
2023/02/13 07:47:36;;;;;;;19.30;10.63;;;3.20;94.20;;;;;;5025376;28;20034;-78
2023/02/13 07:50:04;;;;;;;17.63;9.70;;;3.00;94.50;;;;;;5024074;28;20668;-78
2023/02/13 07:52:31;;;;;;;16.20;9.68;;;3.30;94.30;;;;;;5025254;28;20026;-79
2023/02/13 07:54:57;;;;;;;16.60;9.60;;;3.20;94.40;;;;;;5025501;28;20029;-77
2023/02/13 07:57:22;;;;;;;18.50;9.82;;;3.30;94.20;;;;;;5023248;28;20110;-80
2023/02/13 07:59:48;;;;;;;17.63;9.18;;;3.40;94.00;;;;;;5023216;28;20414;-79
2023/02/13 08:02:15;;;;;;;18.92;9.80;;;3.50;94.00;;;;;;5024565;28;20068;-78
2023/02/13 08:04:44;;;;;;;20.73;10.35;;;3.40;94.00;;;;;;5023834;28;20117;-78
2023/02/13 08:07:11;;;;;;;16.83;9.35;;;3.50;94.00;;;;;;5019781;28;20053;-77
2023/02/13 08:12:21;;;;;;;21.83;10.17;;;3.50;94.20;;;;;;5024101;28;20037;-77
2023/02/13 08:14:46;;;;;;;19.90;10.52;;;3.50;94.10;;;;;;5021599;28;20041;-76
2023/02/13 08:17:12;;;;;;;21.73;10.93;;;3.50;94.20;;;;;;5023078;28;20036;-78
2023/02/13 08:19:38;;;;;;;19.55;11.18;;;3.50;94.10;;;;;;5024481;28;20468;-76
2023/02/13 08:22:03;;;;;;;15.48;9.50;;;3.60;94.50;;;;;;5022571;28;20463;-76
2023/02/13 08:24:29;;;;;;;19.23;10.02;;;3.50;94.60;;;;;;5023673;28;20048;-77
2023/02/13 08:26:55;;;;;;;19.15;10.95;;;3.40;94.70;;;;;;5018687;28;20167;-77
2023/02/13 08:29:21;;;;;;;17.85;9.80;;;3.50;94.40;;;;;;5018884;28;20539;-77
2023/02/13 08:31:46;;;;;;;19.83;11.30;;;3.50;94.40;;;;;;5023158;28;20037;-76
2023/02/13 08:34:12;;;;;;;18.48;10.27;;;3.60;94.30;;;;;;5024543;28;20022;-76
2023/02/13 08:36:38;;;;;;;17.17;9.75;;;3.50;94.60;;;;;;5020794;28;20029;-77
2023/02/13 08:39:04;;;;;;;20.50;10.77;;;3.50;94.50;;;;;;5023133;28;20029;-77
2023/02/13 08:41:29;;;;;;;19.60;11.30;;;3.50;94.90;;;;;;5025902;28;20550;-76
2023/02/13 08:43:55;;;;;;;18.73;9.90;;;3.60;94.70;;;;;;5025460;28;20125;-77
2023/02/13 08:46:21;;;;;;;19.17;10.02;;;3.60;94.30;;;;;;5025142;28;20175;-77
2023/02/13 08:48:46;;;;;;;17.48;10.07;;;3.80;94.30;;;;;;5026771;28;20022;-77
2023/02/13 08:51:13;;;;;;;15.35;9.15;;;3.80;94.40;;;;;;5022994;28;20041;-79
2023/02/13 08:53:41;;;;;;;16.40;9.45;;;3.80;94.30;;;;;;5018817;28;20026;-77
2023/02/13 08:56:06;;;;;;;18.02;9.75;;;3.90;94.70;;;;;;5025109;28;20496;-77
2023/02/13 08:58:32;;;;;;;21.80;10.23;;;3.90;94.20;;;;;;5022228;28;20048;-77
2023/02/13 09:00:58;;;;;;;17.40;10.27;;;4.00;94.10;;;;;;5021874;28;20069;-77
2023/02/13 09:03:24;;;;;;;20.05;11.43;;;4.10;93.90;;;;;;5022498;28;20095;-77
2023/02/13 09:05:49;;;;;;;17.63;10.15;;;4.10;94.00;;;;;;5024954;28;20048;-78
2023/02/13 09:08:15;;;;;;;23.38;11.23;;;4.00;94.20;;;;;;5025808;28;20040;-78
2023/02/13 09:10:44;;;;;;;20.63;11.02;;;4.00;94.20;;;;;;5024934;28;20056;-77
2023/02/13 09:13:10;;;;;;;19.42;9.60;;;4.00;93.90;;;;;;5024485;28;20029;-78
2023/02/13 09:15:39;;;;;;;24.55;11.65;;;4.10;94.10;;;;;;5026313;28;20041;-78
2023/02/13 09:18:06;;;;;;;23.40;10.20;;;4.20;94.30;;;;;;5022703;28;20026;-78
2023/02/13 09:20:31;;;;;;;16.92;10.27;;;4.20;94.10;;;;;;5024172;28;20069;-79
2023/02/13 09:22:57;;;;;;;20.73;9.98;;;4.30;93.90;;;;;;5022718;28;20052;-77
2023/02/13 09:25:23;;;;;;;19.88;11.20;;;4.40;93.90;;;;;;5022461;28;20033;-77
2023/02/13 09:27:48;;;;;;;20.95;11.52;;;4.50;93.60;;;;;;5020936;28;20041;-77
2023/02/13 09:30:21;;;;;;;21.00;11.07;;;4.50;93.60;;;;;;5021346;28;20044;-77
2023/02/13 09:32:48;;;;;;;18.92;10.75;;;4.50;93.90;;;;;;5022418;28;20030;-77
2023/02/13 09:35:14;;;;;;;19.25;11.00;;;4.60;94.00;;;;;;5021385;28;20036;-77
2023/02/13 09:37:39;;;;;;;21.92;12.82;;;4.70;93.90;;;;;;5021485;28;20041;-78
2023/02/13 09:40:26;;;;;;;18.60;10.52;;;4.80;93.90;;;;;;5022237;28;20049;-77
2023/02/13 09:42:55;;;;;;;21.42;11.70;;;4.80;93.80;;;;;;5018715;28;20045;-77
2023/02/13 09:45:21;;;;;;;19.45;11.05;;;4.90;93.80;;;;;;5021879;28;20328;-78
2023/02/13 09:47:48;;;;;;;21.65;10.95;;;5.00;93.80;;;;;;5019015;28;20040;-77
2023/02/13 09:50:22;;;;;;;18.65;11.18;;;5.10;93.70;;;;;;5020128;28;20032;-77
2023/02/13 09:52:50;;;;;;;20.52;12.63;;;5.10;93.50;;;;;;5014481;28;20391;-77
2023/02/13 09:55:36;;;;;;;21.30;12.75;;;5.20;93.80;;;;;;5020937;28;20032;-77
2023/02/13 09:58:38;;;;;;;21.55;11.68;;;5.20;93.80;;;;;;5021094;28;20032;-77
2023/02/13 10:01:13;;;;;;;19.50;11.18;;;5.30;93.70;;;;;;5020993;28;20048;-75
2023/02/13 10:04:06;;;;;;;20.13;10.77;;;5.40;93.50;;;;;;5022124;28;20112;-77
2023/02/13 10:06:48;;;;;;;20.10;10.73;;;5.50;92.90;;;;;;5020021;28;20068;-78
2023/02/13 10:09:45;;;;;;;23.83;11.93;;;5.50;92.80;;;;;;5023397;28;20117;-80
2023/02/13 10:12:16;;;;;;;26.25;13.45;;;5.60;93.30;;;;;;5019487;28;20026;-77
2023/02/13 10:14:57;;;;;;;22.08;13.60;;;5.70;93.10;;;;;;5021472;28;20032;-77
2023/02/13 10:17:31;;;;;;;18.42;10.52;;;5.70;92.90;;;;;;5021079;28;20025;-77
2023/02/13 10:20:02;;;;;;;22.15;11.15;;;5.80;92.80;;;;;;5020384;28;20045;-78
2023/02/13 10:22:30;;;;;;;19.00;11.30;;;5.80;93.00;;;;;;5020805;28;20132;-78
2023/02/13 10:25:13;;;;;;;19.65;11.27;;;5.80;92.70;;;;;;5021824;28;20134;-77
2023/02/13 10:27:50;;;;;;;21.13;11.15;;;6.00;92.80;;;;;;5018881;28;20449;-78
2023/02/13 10:30:21;;;;;;;22.67;12.27;;;6.10;92.50;;;;;;5021506;28;20506;-77
2023/02/13 10:35:41;;;;;;;18.50;10.70;;;6.50;92.20;;;;;;5021509;28;20456;-78
2023/02/13 10:38:19;;;;;;;19.85;11.27;;;6.40;92.00;;;;;;5020170;28;20076;-77
2023/02/13 10:41:19;;;;;;;17.52;9.63;;;6.50;92.20;;;;;;5020335;28;20376;-77
2023/02/13 10:44:09;;;;;;;20.42;11.27;;;6.60;91.90;;;;;;5021340;28;20112;-78
2023/02/13 10:46:44;;;;;;;17.73;10.75;;;6.90;92.20;;;;;;5022428;28;20121;-80
2023/02/13 10:49:21;;;;;;;22.02;11.40;;;7.00;91.40;;;;;;5022956;28;20030;-79
2023/02/13 10:51:53;;;;;;;17.45;10.27;;;7.00;91.80;;;;;;5021499;28;20112;-79
2023/02/13 10:54:24;;;;;;;19.85;10.57;;;7.10;91.80;;;;;;5020895;28;20029;-79
2023/02/13 10:57:04;;;;;;;26.35;13.00;;;7.20;91.90;;;;;;5020622;28;20039;-79
2023/02/13 11:00:12;;;;;;;18.17;10.52;;;7.30;91.80;;;;;;5020345;28;20034;-78
2023/02/13 11:02:39;;;;;;;20.75;11.52;;;7.40;91.40;;;;;;5020163;28;20073;-78
2023/02/13 11:05:29;;;;;;;25.27;14.57;;;7.20;91.30;;;;;;5021476;28;21445;-78
2023/02/13 11:07:56;;;;;;;79.60;43.67;;;7.40;91.40;;;;;;5019234;28;20083;-79
2023/02/13 11:10:24;;;;;;;22.17;12.20;;;7.50;91.10;;;;;;5021264;28;20378;-78
2023/02/13 11:12:52;;;;;;;19.35;10.13;;;7.80;91.00;;;;;;5018135;28;20448;-78
2023/02/13 11:15:26;;;;;;;17.88;9.85;;;7.80;91.10;;;;;;5014153;28;20039;-78
2023/02/13 11:17:58;;;;;;;14.50;9.10;;;8.00;90.50;;;;;;5020473;28;20084;-79
2023/02/13 11:20:37;;;;;;;18.88;9.85;;;8.00;90.50;;;;;;5020121;28;20041;-79
2023/02/13 11:23:16;;;;;;;18.48;10.68;;;8.00;90.70;;;;;;5017880;28;20127;-79
2023/02/13 11:26:12;;;;;;;16.92;10.80;;;8.10;90.50;;;;;;5019030;28;20065;-78
2023/02/13 11:28:47;;;;;;;20.63;9.60;;;8.00;90.10;;;;;;5019927;28;20041;-78
2023/02/13 11:31:17;;;;;;;;;;;8.10;90.80;;;;;;5013323;28;20032;-78
2023/02/13 11:33:43;;;;;;;17.00;9.52;;;8.20;90.30;;;;;;5021132;28;19909;-79
2023/02/13 11:36:26;;;;;;;19.95;11.45;;;8.20;90.00;;;;;;5023235;28;20475;-78
2023/02/13 11:39:19;;;;;;;18.77;10.88;;;8.30;90.10;;;;;;5022514;28;20099;-79
2023/02/13 11:41:46;;;;;;;18.88;10.88;;;8.40;90.40;;;;;;5020984;28;20042;-79
2023/02/13 11:44:31;;;;;;;18.17;11.40;;;8.60;90.10;;;;;;5019979;28;20451;-79
2023/02/13 11:47:00;;;;;;;17.20;9.90;;;8.60;90.00;;;;;;5017444;28;20475;-78
2023/02/13 11:49:31;;;;;;;19.40;11.20;;;8.60;89.60;;;;;;5016003;28;20054;-78
2023/02/13 11:52:00;;;;;;;17.98;11.02;;;8.40;89.40;;;;;;5019817;28;20037;-79
2023/02/13 11:54:41;;;;;;;17.95;10.55;;;8.60;89.70;;;;;;5017316;28;20124;-78
2023/02/13 11:57:33;;;;;;;20.10;11.43;;;8.60;89.00;;;;;;5016059;28;20045;-77
2023/02/13 12:00:01;;;;;;;16.35;10.27;;;9.10;89.40;;;;;;5020434;28;20099;-79
2023/02/13 12:02:42;;;;;;;28.02;10.55;;;9.10;89.00;;;;;;5023021;28;20048;-78
2023/02/13 12:05:20;;;;;;;19.55;10.68;;;9.30;89.10;;;;;;5023179;28;20097;-79
2023/02/13 12:07:47;;;;;;;16.90;9.75;;;9.50;89.00;;;;;;5021650;28;20033;-79
2023/02/13 12:10:22;;;;;;;23.95;13.43;;;9.60;88.20;;;;;;5020580;28;20033;-78
2023/02/13 12:12:58;;;;;;;23.60;11.57;;;9.70;87.70;;;;;;5025032;28;20036;-79
2023/02/13 12:15:35;;;;;;;18.75;10.77;;;9.70;87.50;;;;;;5027614;28;20100;-79
2023/02/13 12:18:20;;;;;;;19.02;10.05;;;9.70;87.70;;;;;;5026852;28;20033;-77
2023/02/13 12:21:00;;;;;;;21.92;12.00;;;9.70;87.20;;;;;;5026278;28;20044;-79
2023/02/13 12:23:48;;;;;;;39.50;22.42;;;9.70;87.70;;;;;;5024018;28;20021;-79
2023/02/13 12:26:35;;;;;;;30.70;15.70;;;10.10;87.90;;;;;;5024567;28;20029;-79
2023/02/13 12:29:13;;;;;;;19.48;11.07;;;10.10;86.40;;;;;;5023293;28;20036;-80
2023/02/13 12:32:02;;;;;;;19.58;12.07;;;10.00;86.90;;;;;;5025418;28;20022;-79
2023/02/13 12:34:46;;;;;;;18.17;11.07;;;10.20;87.40;;;;;;5026043;28;20048;-79
2023/02/13 12:37:18;;;;;;;16.98;9.80;;;10.40;87.00;;;;;;5025927;28;20550;-78
2023/02/13 12:40:14;;;;;;;20.77;11.32;;;10.20;86.20;;;;;;5025525;28;20073;-79
2023/02/13 12:42:49;;;;;;;20.45;11.15;;;10.10;86.20;;;;;;5025772;28;20091;-79
2023/02/13 12:45:20;;;;;;;;;;;10.30;86.20;;;;;;5026376;28;20041;-79
2023/02/13 12:48:13;;;;;;;20.95;11.02;;;10.60;86.90;;;;;;5026148;28;19959;-79
2023/02/13 12:51:04;;;;;;;19.33;10.35;;;10.60;86.40;;;;;;5025911;28;20044;-79
2023/02/13 12:53:46;;;;;;;18.30;11.10;;;10.60;85.40;;;;;;5024899;28;20037;-79
2023/02/13 12:57:06;;;;;;;19.92;10.48;;;10.60;84.80;;;;;;5025075;28;20040;-79
2023/02/13 12:59:43;;;;;;;20.80;11.55;;;10.50;85.20;;;;;;5022232;28;20424;-79
2023/02/13 13:02:40;;;;;;;19.15;10.30;;;10.70;84.20;;;;;;5026486;28;20063;-79
2023/02/13 13:05:40;;;;;;;22.23;11.60;;;10.70;84.50;;;;;;5024100;28;20033;-79
2023/02/13 13:08:30;;;;;;;22.95;12.30;;;10.70;85.10;;;;;;5025311;28;20088;-77
2023/02/13 13:11:19;;;;;;;19.77;11.60;;;10.70;84.00;;;;;;5024637;28;20435;-78
2023/02/13 13:14:00;;;;;;;17.92;10.93;;;10.60;84.20;;;;;;5024948;28;20041;-80
2023/02/13 13:16:59;;;;;;;17.17;10.10;;;10.60;84.60;;;;;;5028127;28;20033;-78
2023/02/13 13:19:43;;;;;;;24.08;12.38;;;10.50;84.50;;;;;;5030067;28;20034;-79
2023/02/13 13:22:27;;;;;;;38.97;18.95;;;10.80;85.00;;;;;;5028711;28;20034;-80
2023/02/13 13:25:23;;;;;;;23.80;12.50;;;10.80;84.70;;;;;;5030333;28;20056;-80
2023/02/13 13:27:54;;;;;;;22.13;12.90;;;11.00;84.70;;;;;;5029803;28;20356;-79
2023/02/13 13:30:27;;;;;;;22.95;12.05;;;11.00;84.50;;;;;;5030159;28;20029;-81
2023/02/13 13:33:03;;;;;;;20.60;12.25;;;10.90;84.70;;;;;;5030192;28;20025;-78
2023/02/13 13:35:29;;;;;;;21.98;13.27;;;10.90;84.50;;;;;;5025681;28;20033;-77
2023/02/13 13:38:17;;;;;;;22.13;12.38;;;11.00;84.60;;;;;;5025185;28;20050;-77
2023/02/13 13:40:55;;;;;;;29.00;15.68;;;11.00;83.70;;;;;;5025684;28;20077;-76
2023/02/13 13:43:54;;;;;;;35.65;19.90;;;11.00;83.30;;;;;;5025598;28;20585;-77
2023/02/13 13:46:38;;;;;;;24.90;14.93;;;11.20;83.70;;;;;;5025315;28;20047;-80
2023/02/13 13:49:26;;;;;;;25.35;14.30;;;11.40;83.30;;;;;;5018431;28;20161;-78
2023/02/13 13:51:51;;;;;;;50.80;20.35;;;11.60;82.90;;;;;;5022935;28;20072;-77
2023/02/13 13:54:21;;;;;;;21.63;13.35;;;11.60;82.30;;;;;;5024991;28;20079;-79
2023/02/13 13:56:53;;;;;;;27.05;14.02;;;11.60;82.60;;;;;;5025338;28;20029;-77